Meteo Giornale » Osservazioni meteo Germania » Noervenich

ore: 00:20 - Osservazioni Meteo Noervenich
Lat. 50° 50' N Lon. 6° 40' E Alt. 118 metri s.l.m.

nuvoloso Europe/Berlin

24 °C

Nuvoloso

Temp. 24 Ore

20 °C

34 °C

Nord

5.5 Km/h

Dew point 17 °C

Umidità 64 %

Visibilità  10 Km

Il sole sorge alle ore 05:17

Il sole tramonta alle ore 21:51

Data e Ora Cielo e Fenomeni T °C DP °C Um. % Pres. hPa Vis. km Vento km/h
Oggi h: 00:20 nuvoloso Nuvoloso 24 17 64 1013 10 N 5.5
Ieri h: 23:20 nuvoloso Nuvoloso 26 17 57 1013 10 N 5.5
Ieri h: 22:20 poco_nuvoloso Poco Nuvoloso 26 17 57 1012 10 O/SO 7.4
Ieri h: 21:20 poco_nuvoloso Poco Nuvoloso 28 17 51 1012 10 SO 7.4
Ieri h: 20:20 poco_nuvoloso Poco Nuvoloso 30 17 45 1011 10 O 9.3
Ieri h: 19:20 poco_nuvoloso Poco Nuvoloso 32 16 38 1011 10 O/NO 9.3
Ieri h: 18:20 poco_nuvoloso Poco Nuvoloso 33 16 36 1011 10 O/SO 9.3
Ieri h: 17:20 poco_nuvoloso Poco Nuvoloso 33 15 33 1011 10 SO 13
Ieri h: 16:20 poco_nuvoloso Poco Nuvoloso 33 15 33 1010 10 SO 11.1
Ieri h: 15:20 poco_nuvoloso Poco Nuvoloso 34 15 32 1010 10 S/SO 9.3
Ieri h: 14:20 poco_nuvoloso Poco Nuvoloso 33 17 38 1010 10 SE 16.7
Ieri h: 13:20 poco_nuvoloso Poco Nuvoloso 33 16 36 1010 10 E 14.8
Ieri h: 12:30 poco_nuvoloso Poco Nuvoloso 32 16 38 1010 10 E 13
Ieri h: 12:20 poco_nuvoloso Poco Nuvoloso 31 16 40 1010 10 E/NE 13
Ieri h: 11:20 poco_nuvoloso Poco Nuvoloso 30 14 37 1011 10 E/SE 9.3
Ieri h: 10:20 poco_nuvoloso Poco Nuvoloso 29 15 42 1011 10 S/SE 9.3
Ieri h: 09:20 poco_nuvoloso Poco Nuvoloso 26 17 57 1011 10 E 9.3
Ieri h: 08:20 nuvoloso Nuvoloso 22 16 68 1011 10 E/SE 7.4
Ieri h: 07:20 nuvoloso Nuvoloso 22 14 60 1010 10 N 5.5
Ieri h: 06:20 nuvoloso Nuvoloso 21 12 56 1010 10 E/SE 7.4
Ieri h: 05:20 poco_nuvoloso Poco Nuvoloso 20 13 64 1010 10 SE 7.4
Ieri h: 04:20 poco_nuvoloso Poco Nuvoloso 20 13 64 1010 10 N 5.5
Ieri h: 03:20 sereno Sereno 20 13 64 1010 10 SE 7.4
Ieri h: 02:20 sereno Sereno 20 14 68 1011 10 SE 7.4